METAR Data
IDs: Format: Raw Decoded Include TAF

Data at: 0906 UTC 26 Jan 2020

KY51 260855Z AUTO 28005KT 10SM BKN008 OVC040 M02/M02 A2990 RMK AO1 T10251025
KY51 260835Z AUTO 29007KT 10SM OVC008 M02/M02 A2991 RMK AO1 T10201020
KY51 260815Z AUTO 28008KT 10SM OVC008 M02/M02 A2991 RMK AO1 T10171018
KY51 260755Z AUTO 28009KT 10SM OVC008 M02/M02 A2991 RMK AO1 T10161017
KY51 260735Z AUTO 28009KT 10SM OVC008 M01/M02 A2991 RMK AO1 T10151016
KY51 260715Z AUTO 29008KT 10SM OVC008 M01/M01 A2991 RMK AO1 T10151015
KY51 260655Z AUTO 29007KT 7SM OVC008 M01/M01 A2991 RMK AO1 T10131013
KY51 260635Z AUTO 28007KT 7SM OVC008 M01/M01 A2991 RMK AO1 T10111011
KY51 260615Z AUTO 29008KT 7SM OVC008 M01/M01 A2991 RMK AO1 T10111011
KY51 260555Z AUTO 30006KT 5SM OVC006 M01/M01 A2990 RMK AO1 T10101010 11002 21010 400011010
KY51 260535Z AUTO 29008KT 5SM OVC006 M01/M01 A2990 RMK AO1 T10101010
KY51 260515Z AUTO 29007KT 7SM OVC008 M01/M01 A2990 RMK AO1 T10101010
KY51 260455Z AUTO 28008KT 7SM OVC008 M01/M01 A2990 RMK AO1 T10101010
KY51 260435Z AUTO 28007KT 7SM OVC008 M01/M01 A2989 RMK AO1 T10101010
KY51 260415Z AUTO 28008KT 7SM OVC008 M01/M01 A2990 RMK AO1 T10091009
KY51 260355Z AUTO 28006KT 10SM OVC008 M01/M01 A2990 RMK AO1 T10091009
KY51 260335Z AUTO 29007KT 10SM OVC008 M01/M01 A2989 RMK AO1 T10081008
KY51 260315Z AUTO 28007KT 10SM OVC010 M01/M01 A2989 RMK AO1 T10101010
KY51 260255Z AUTO 29007KT 10SM OVC010 M01/M01 A2989 RMK AO1 T10081008
KY51 260235Z AUTO 29007KT 10SM OVC010 M01/M01 A2989 RMK AO1 T10081008
KY51 260215Z AUTO 29006KT 10SM OVC012 M01/M01 A2988 RMK AO1 T10071007
KY51 260155Z AUTO 29006KT 10SM OVC012 M01/M01 A2988 RMK AO1 T10071007
KY51 260135Z AUTO 29005KT 10SM OVC012 00/M01 A2989 RMK AO1 T10051006
KY51 260115Z AUTO 29006KT 10SM OVC012 00/M01 A2988 RMK AO1 T10051006
KY51 260055Z AUTO 28005KT 10SM OVC012 00/M01 A2988 RMK AO1 T10051006
KY51 260035Z AUTO 28005KT 10SM OVC012 00/00 A2988 RMK AO1 T10051005
KY51 260015Z AUTO 29006KT 10SM OVC012 00/00 A2987 RMK AO1 T10041005
KY51 252355Z AUTO 30007KT 10SM OVC012 00/00 A2987 RMK AO1 T10011004 10000 21003
KY51 252335Z AUTO 30007KT 10SM OVC012 00/00 A2987 RMK AO1 T00001002
KY51 252315Z AUTO 29005KT 10SM BKN012 BKN016 OVC041 00/00 A2986 RMK AO1 T00001001
KY51 252255Z AUTO 29006KT 10SM SCT010 BKN014 OVC039 00/00 A2986 RMK AO1 T00001001
KY51 252235Z AUTO 29006KT 10SM BKN012 BKN017 OVC039 00/00 A2985 RMK AO1 T00001001
KY51 252215Z AUTO 29007KT 10SM OVC010 00/00 A2985 RMK AO1 T00001001
KY51 252155Z AUTO 30006KT 10SM OVC010 00/00 A2985 RMK AO1 T00001001
KY51 252135Z AUTO 31010KT 10SM OVC010 00/00 A2984 RMK AO1 T00001002
KY51 252115Z AUTO 30011KT 10SM OVC008 00/00 A2984 RMK AO1 T00001002
KY51 252055Z AUTO 30012KT 10SM OVC008 00/00 A2984 RMK AO1 T00001003
KY51 252035Z AUTO 31011G15KT 10SM OVC008 00/00 A2984 RMK AO1 T00001003
KY51 252015Z AUTO 31011KT 10SM OVC008 00/00 A2984 RMK AO1 T10011003
KY51 251955Z AUTO 30009KT 7SM OVC008 00/00 A2984 RMK AO1 T10021005
KY51 251935Z AUTO 31011KT 10SM OVC008 00/00 A2983 RMK AO1 T10011003
KY51 251915Z AUTO 30008KT 7SM OVC006 00/00 A2984 RMK AO1 T10021005
KY51 251855Z AUTO 30010KT 10SM OVC006 00/00 A2984 RMK AO1 T10021005
KY51 251835Z AUTO 30010KT 10SM OVC006 00/00 A2984 RMK AO1 T10021005
KY51 251815Z AUTO 29009KT 10SM OVC006 00/00 A2984 RMK AO1 T10031005
KY51 251755Z AUTO 30009KT 7SM OVC006 00/00 A2984 RMK AO1 T10031003 10000 21005
KY51 251735Z AUTO 30011KT 7SM OVC006 00/00 A2984 RMK AO1 T10031005
KY51 251715Z AUTO 30009KT 5SM OVC006 00/00 A2985 RMK AO1 T10031003
KY51 251655Z AUTO 31009KT 7SM OVC006 00/00 A2985 RMK AO1 T10031003
KY51 251635Z AUTO 31010KT 5SM OVC006 00/00 A2985 RMK AO1 T10031003
KY51 251615Z AUTO 30009KT 10SM OVC006 00/00 A2984 RMK AO1 T10051005
KY51 251555Z AUTO 31010KT 10SM OVC006 00/00 A2984 RMK AO1 T10051005
KY51 251535Z AUTO 31012KT 5SM OVC006 00/00 A2983 RMK AO1 T10051005
KY51 251515Z AUTO 31009KT 7SM OVC006 00/00 A2983 RMK AO1 T10051005
KY51 251455Z AUTO 32011KT 5SM OVC006 00/00 A2983 RMK AO1 T10051005
KY51 251435Z AUTO 31011KT 5SM OVC006 00/00 A2983 RMK AO1 T10051005
KY51 251415Z AUTO 31012KT 10SM OVC006 00/00 A2983 RMK AO1 T10051005
KY51 251355Z AUTO 31011KT 4SM OVC006 00/00 A2983 RMK AO1 T10051005
KY51 251335Z AUTO 31009KT 3SM OVC006 00/00 A2982 RMK AO1 T10051005
KY51 251315Z AUTO 31009KT 2SM OVC006 00/00 A2982 RMK AO1 T10031003
KY51 251255Z AUTO 31010KT 3SM OVC006 00/00 A2981 RMK AO1 T10011001
KY51 251235Z AUTO 32012KT 7SM OVC006 00/00 A2981 RMK AO1 T00000000
KY51 251215Z AUTO 31012KT 7SM OVC006 00/00 A2981 RMK AO1 T00000000
KY51 251155Z AUTO 32012G15KT 7SM OVC006 00/00 A2981 RMK AO1 T10011001 10001 21001
KY51 251135Z AUTO 31010KT 3SM OVC006 00/00 A2981 RMK AO1 T10011001
KY51 251115Z AUTO 32010KT 5SM OVC006 00/00 A2981 RMK AO1 T00000000
KY51 251055Z AUTO 31012KT 5SM OVC006 00/00 A2981 RMK AO1 T00000000
KY51 251035Z AUTO 31010KT 3SM OVC004 00/00 A2981 RMK AO1 T00000000
KY51 251015Z AUTO 31010G15KT 7SM OVC004 00/00 A2980 RMK AO1 T00000000
KY51 250955Z AUTO 31010KT 7SM OVC004 00/00 A2980 RMK AO1 T00000000
KY51 250935Z AUTO 31009KT 2 1/2SM OVC004 00/00 A2981 RMK AO1 T00000000
KY51 250915Z AUTO 32011KT 2SM OVC004 00/00 A2981 RMK AO1 T00000000
KY51 250855Z AUTO 31007KT 5SM OVC004 00/00 A2981 RMK AO1 T00000000
KY51 250835Z AUTO 32008KT 5SM OVC004 00/00 A2981 RMK AO1 T00000000
KY51 250815Z AUTO 32010KT 3SM OVC004 00/00 A2981 RMK AO1 T00000000
KY51 250755Z AUTO 31009KT 2SM OVC004 00/00 A2981 RMK AO1 T00000000
KY51 250735Z AUTO 32008KT 2SM OVC004 00/00 A2981 RMK AO1 T00000000
KY51 250715Z AUTO 32011KT 4SM OVC004 00/00 A2981 RMK AO1 T00000000
KY51 250655Z AUTO 32010KT 3SM OVC004 00/00 A2981 RMK AO1 T00000000
KY51 250635Z AUTO 32009KT 4SM OVC004 00/00 A2982 RMK AO1 T00000000
KY51 250615Z AUTO 32009KT 3SM OVC004 00/00 A2983 RMK AO1 T00010001
KY51 250555Z AUTO 32008KT 4SM OVC004 00/00 A2983 RMK AO1 T00010001 10005 20001 400081016
KY51 250535Z AUTO 32008KT 4SM OVC004 00/00 A2983 RMK AO1 T00010001
KY51 250515Z AUTO 33009KT 5SM OVC004 00/00 A2983 RMK AO1 T00020002
KY51 250455Z AUTO 34008KT 5SM OVC004 00/00 A2983 RMK AO1 T00020002
KY51 250435Z AUTO 33006KT 5SM OVC004 00/00 A2983 RMK AO1 T00020002
KY51 250415Z AUTO 34008KT 4SM OVC004 00/00 A2983 RMK AO1 T00020002
KY51 250355Z AUTO 34007KT 5SM OVC004 00/00 A2983 RMK AO1 T00020002
KY51 250335Z AUTO 34007KT 5SM OVC004 00/00 A2984 RMK AO1 T00020002
KY51 250315Z AUTO 35008KT 5SM OVC004 00/00 A2984 RMK AO1 T00030003
KY51 250255Z AUTO 35007KT 5SM OVC004 00/00 A2984 RMK AO1 T00030003
KY51 250235Z AUTO 35007KT 5SM OVC004 00/00 A2984 RMK AO1 T00030003
KY51 250215Z AUTO 35007KT 5SM OVC004 00/00 A2984 RMK AO1 T00030003
KY51 250155Z AUTO 36007KT 5SM OVC004 00/00 A2985 RMK AO1 T00040004
KY51 250135Z AUTO 35008KT 7SM OVC004 01/01 A2985 RMK AO1 T00050005
KY51 250115Z AUTO 36007KT 7SM OVC004 01/01 A2985 RMK AO1 T00050005
KY51 250055Z AUTO 36008KT 7SM OVC004 01/01 A2985 RMK AO1 T00050005
KY51 250035Z AUTO 35007KT 7SM OVC004 01/01 A2985 RMK AO1 T00050005
KY51 250015Z AUTO 36007KT 10SM OVC004 01/01 A2985 RMK AO1 T00050005
KY51 242355Z AUTO 01010KT 10SM OVC004 01/01 A2985 RMK AO1 T00050005 10008 20004
KY51 242335Z AUTO 36007KT 10SM OVC004 01/01 A2984 RMK AO1 T00050005
KY51 242315Z AUTO 36007KT 7SM OVC004 01/01 A2985 RMK AO1 T00050005
KY51 242255Z AUTO 36008KT 7SM OVC004 01/01 A2985 RMK AO1 T00050005
KY51 242235Z AUTO 01008KT 5SM OVC004 00/00 A2985 RMK AO1 T00040004
KY51 242215Z AUTO 01009KT 5SM OVC004 01/01 A2985 RMK AO1 T00050005
KY51 242155Z AUTO 35007KT 7SM OVC006 01/01 A2984 RMK AO1 T00060006
KY51 242135Z AUTO 36008KT 10SM OVC008 01/01 A2985 RMK AO1 T00070007
KY51 242115Z AUTO 01006KT 10SM OVC008 01/01 A2986 RMK AO1 T00070007